Time;durP1;ratioP1;P1;durP2;ratioP2;P2;SDS_P1;SDS_P2;PMS_P1;PMS_P2;Temp;Humidity;BMP_temperature;BMP_pressure;BME280_temperature;BME280_humidity;BME280_pressure;Samples;Min_cycle;Max_cycle;Signal;HPM_P1;HPM_P2
2023/04/03 00:01:17;;;;;;;7.57;2.07;;;2.20;99.90;;;;;;4997059;28;20178;-76
2023/04/03 00:03:43;;;;;;;7.83;2.20;;;2.20;99.90;;;;;;4996221;28;20288;-76
2023/04/03 00:06:10;;;;;;;8.93;2.27;;;2.20;99.90;;;;;;4997653;28;20265;-75
2023/04/03 00:08:37;;;;;;;4.13;1.80;;;2.30;99.90;;;;;;4999044;28;20365;-76
2023/04/03 00:11:04;;;;;;;7.63;1.67;;;2.30;99.90;;;;;;4993781;28;20224;-76
2023/04/03 00:13:30;;;;;;;7.07;1.67;;;2.30;99.90;;;;;;4993766;28;20534;-75
2023/04/03 00:15:56;;;;;;;7.13;1.73;;;2.30;99.90;;;;;;4996436;28;20330;-76
2023/04/03 00:18:22;;;;;;;5.37;1.73;;;2.20;99.90;;;;;;4993672;28;20206;-76
2023/04/03 00:20:48;;;;;;;5.63;1.70;;;2.20;99.90;;;;;;4991656;28;20232;-76
2023/04/03 00:23:14;;;;;;;5.23;1.60;;;2.20;99.90;;;;;;5001881;28;20309;-76
2023/04/03 00:25:40;;;;;;;3.80;1.53;;;2.20;99.90;;;;;;5004772;28;20288;-76
2023/04/03 00:28:06;;;;;;;4.50;1.40;;;2.20;99.90;;;;;;5002080;28;20186;-77
2023/04/03 00:30:32;;;;;;;5.73;2.23;;;2.20;99.90;;;;;;5007907;28;20248;-76
2023/04/03 00:32:58;;;;;;;9.63;1.90;;;2.20;99.90;;;;;;5000220;28;20206;-76
2023/04/03 00:35:24;;;;;;;3.67;1.50;;;2.30;99.90;;;;;;4998327;28;20290;-74
2023/04/03 00:37:55;;;;;;;3.60;1.70;;;2.20;99.90;;;;;;4999022;28;20217;-76
2023/04/03 00:40:22;;;;;;;7.20;1.80;;;2.20;99.90;;;;;;4997627;28;20196;-76
2023/04/03 00:42:51;;;;;;;5.67;1.77;;;2.20;99.90;;;;;;4999101;28;20186;-76
2023/04/03 00:45:44;;;;;;;6.90;2.23;;;2.20;99.90;;;;;;5000606;28;20214;-76
2023/04/03 00:48:16;;;;;;;4.50;1.70;;;2.10;99.90;;;;;;5000111;28;20727;-76
2023/04/03 00:50:43;;;;;;;6.33;1.77;;;2.10;99.90;;;;;;5004495;28;20293;-76
2023/04/03 00:53:13;;;;;;;6.83;1.60;;;2.20;99.90;;;;;;4995690;28;20214;-74
2023/04/03 00:55:39;;;;;;;5.43;1.97;;;2.20;99.90;;;;;;4999210;28;20285;-75
2023/04/03 00:58:07;;;;;;;5.77;2.13;;;2.10;99.90;;;;;;4995281;28;20830;-76
2023/04/03 01:00:33;;;;;;;4.50;1.57;;;2.20;99.90;;;;;;5008086;28;20251;-76
2023/04/03 01:03:00;;;;;;;7.73;1.97;;;2.10;99.90;;;;;;5001876;28;20728;-74
2023/04/03 01:05:25;;;;;;;6.87;2.20;;;2.10;99.90;;;;;;5003294;28;20268;-75
2023/04/03 01:07:52;;;;;;;7.90;2.07;;;2.10;99.90;;;;;;4998600;28;20216;-75
2023/04/03 01:10:20;;;;;;;6.43;1.60;;;2.10;99.90;;;;;;5000764;28;20205;-75
2023/04/03 01:12:48;;;;;;;6.07;1.67;;;2.10;99.90;;;;;;5001287;28;20609;-76
2023/04/03 01:15:22;;;;;;;4.77;1.87;;;2.10;99.90;;;;;;5000291;28;20703;-76
2023/04/03 01:17:48;;;;;;;5.77;2.07;;;2.10;99.90;;;;;;4997897;28;20271;-75
2023/04/03 01:20:32;;;;;;;8.87;1.70;;;2.10;99.90;;;;;;4997614;28;20260;-73
2023/04/03 01:23:03;;;;;;;6.80;1.50;;;2.20;99.90;;;;;;5000165;28;20242;-75
2023/04/03 01:25:29;;;;;;;7.70;1.87;;;2.10;99.90;;;;;;5006977;28;20205;-76
2023/04/03 01:27:55;;;;;;;4.17;1.60;;;2.10;99.90;;;;;;4995924;28;20185;-76
2023/04/03 01:30:27;;;;;;;7.43;1.83;;;2.10;99.90;;;;;;5001299;28;20639;-75
2023/04/03 01:32:53;;;;;;;4.37;1.50;;;2.00;99.90;;;;;;4994456;28;20220;-74
2023/04/03 01:35:19;;;;;;;3.97;1.40;;;2.00;99.90;;;;;;4993803;28;20233;-75
2023/04/03 01:37:44;;;;;;;3.23;1.20;;;2.00;99.90;;;;;;4993449;28;20212;-76
2023/04/03 01:40:10;;;;;;;8.60;2.10;;;2.00;99.90;;;;;;5001541;28;20184;-76
2023/04/03 01:42:36;;;;;;;6.53;1.63;;;2.00;99.90;;;;;;5003358;28;20207;-77
2023/04/03 01:45:02;;;;;;;5.07;1.50;;;2.00;99.90;;;;;;5004136;28;20206;-78
2023/04/03 01:47:28;;;;;;;3.03;1.33;;;2.00;99.90;;;;;;5001904;28;20284;-76
2023/04/03 01:49:53;;;;;;;6.40;1.63;;;2.10;99.90;;;;;;4999880;28;20287;-75
2023/04/03 01:52:19;;;;;;;4.83;1.83;;;2.00;99.90;;;;;;4997729;28;20185;-76
2023/04/03 01:54:45;;;;;;;3.30;1.57;;;2.10;99.90;;;;;;4999498;28;20190;-74
2023/04/03 01:57:10;;;;;;;7.00;1.83;;;2.00;99.90;;;;;;4997538;28;20205;-76
2023/04/03 01:59:36;;;;;;;3.10;1.43;;;1.90;99.90;;;;;;5001472;28;20196;-76
2023/04/03 02:02:01;;;;;;;8.23;1.80;;;2.00;99.90;;;;;;4996123;28;20255;-76
2023/04/03 02:04:27;;;;;;;6.07;1.67;;;1.90;99.90;;;;;;4995604;28;20738;-75
2023/04/03 02:06:53;;;;;;;7.53;1.60;;;1.80;99.90;;;;;;4995129;28;20247;-75
2023/04/03 02:09:18;;;;;;;5.67;1.53;;;1.80;99.90;;;;;;4995107;28;20220;-75
2023/04/03 02:11:44;;;;;;;3.10;1.20;;;1.80;99.90;;;;;;4996057;28;20296;-75
2023/04/03 02:14:09;;;;;;;4.30;1.80;;;1.80;99.90;;;;;;4995698;28;20582;-76
2023/04/03 02:16:35;;;;;;;5.87;1.80;;;1.80;99.90;;;;;;4997412;28;20216;-76
2023/04/03 02:19:01;;;;;;;4.53;1.27;;;1.90;99.90;;;;;;5003955;28;20187;-76
2023/04/03 02:21:27;;;;;;;2.80;1.37;;;1.80;99.90;;;;;;5002059;28;20212;-76
2023/04/03 02:23:53;;;;;;;3.00;1.47;;;1.80;99.90;;;;;;5006460;28;20219;-74
2023/04/03 02:26:19;;;;;;;2.73;1.47;;;1.90;99.90;;;;;;5000624;28;20214;-74
2023/04/03 02:28:45;;;;;;;5.70;1.53;;;1.80;99.90;;;;;;4997703;28;20259;-76
2023/04/03 02:31:11;;;;;;;7.27;1.37;;;1.90;99.90;;;;;;4998144;28;20840;-77
2023/04/03 02:33:36;;;;;;;5.67;1.60;;;1.90;99.90;;;;;;4999167;28;20217;-76
2023/04/03 02:36:04;;;;;;;7.90;1.50;;;1.90;99.90;;;;;;4996532;28;20226;-75
2023/04/03 02:38:30;;;;;;;4.90;1.77;;;1.90;99.90;;;;;;4998069;28;20212;-76
2023/04/03 02:41:03;;;;;;;4.70;1.70;;;1.90;99.90;;;;;;4991149;28;20343;-76
2023/04/03 02:43:29;;;;;;;3.50;1.53;;;1.80;99.90;;;;;;4998291;28;20192;-77
2023/04/03 02:45:55;;;;;;;6.90;2.03;;;1.80;99.90;;;;;;4992009;28;20201;-76
2023/04/03 02:48:21;;;;;;;4.80;1.23;;;1.80;99.90;;;;;;4992062;28;20221;-76
2023/04/03 02:50:47;;;;;;;7.47;1.70;;;1.80;99.90;;;;;;4992601;28;20216;-76
2023/04/03 02:53:13;;;;;;;2.50;1.37;;;1.80;99.90;;;;;;5005247;28;20212;-75
2023/04/03 02:55:38;;;;;;;6.40;1.77;;;1.80;99.90;;;;;;4992236;28;20279;-76
2023/04/03 02:58:04;;;;;;;3.23;1.30;;;1.80;99.90;;;;;;4992422;28;20272;-77
2023/04/03 03:00:29;;;;;;;5.97;1.77;;;1.70;99.90;;;;;;4991674;28;20213;-76
2023/04/03 03:02:55;;;;;;;4.00;1.60;;;1.70;99.90;;;;;;4995276;28;20216;-76
2023/04/03 03:05:21;;;;;;;4.37;1.40;;;1.70;99.90;;;;;;4997643;28;20221;-75
2023/04/03 03:07:47;;;;;;;5.03;1.63;;;1.70;99.90;;;;;;4999893;28;20291;-76
2023/04/03 03:10:13;;;;;;;3.77;1.57;;;1.60;99.90;;;;;;4994622;28;20260;-76
2023/04/03 03:12:40;;;;;;;7.73;2.07;;;1.60;99.90;;;;;;4999171;28;20327;-75
2023/04/03 03:15:06;;;;;;;4.53;1.50;;;1.60;99.90;;;;;;4991165;28;20228;-74
2023/04/03 03:17:32;;;;;;;7.27;1.73;;;1.60;99.90;;;;;;4993079;28;20209;-76
2023/04/03 03:19:57;;;;;;;3.33;1.20;;;1.60;99.90;;;;;;4993099;28;20285;-76
2023/04/03 03:22:23;;;;;;;7.80;1.73;;;1.50;99.90;;;;;;5003575;28;20188;-76
2023/04/03 03:24:49;;;;;;;5.83;1.60;;;1.50;99.90;;;;;;4992641;28;20205;-76
2023/04/03 03:27:15;;;;;;;6.23;1.73;;;1.50;99.90;;;;;;4992333;28;20226;-75
2023/04/03 03:29:41;;;;;;;5.63;1.43;;;1.40;99.90;;;;;;5001772;28;20212;-76
2023/04/03 03:32:07;;;;;;;5.20;1.70;;;1.40;99.90;;;;;;4991393;28;20693;-76
2023/04/03 03:34:33;;;;;;;6.30;1.73;;;1.40;99.90;;;;;;4992801;28;20181;-75
2023/04/03 03:36:59;;;;;;;2.67;1.07;;;1.40;99.90;;;;;;5003736;28;20212;-75
2023/04/03 03:39:25;;;;;;;12.93;1.87;;;1.30;99.90;;;;;;4994787;28;20311;-75
2023/04/03 03:41:53;;;;;;;5.90;1.80;;;1.40;99.90;;;;;;4999643;28;20298;-76
2023/04/03 03:44:19;;;;;;;4.50;2.00;;;1.30;99.90;;;;;;4995655;28;20634;-76
2023/04/03 03:46:45;;;;;;;4.80;1.40;;;1.30;99.90;;;;;;5005918;28;20225;-76
2023/04/03 03:49:11;;;;;;;4.50;1.60;;;1.30;99.90;;;;;;4993339;28;20174;-77
2023/04/03 03:51:37;;;;;;;4.73;1.33;;;1.30;99.90;;;;;;4997759;28;20223;-76
2023/04/03 03:54:03;;;;;;;3.40;1.40;;;1.30;99.90;;;;;;4992629;28;20696;-76
2023/04/03 03:56:29;;;;;;;4.80;1.90;;;1.30;99.90;;;;;;4994670;28;20218;-75
2023/04/03 03:58:56;;;;;;;10.60;2.00;;;1.20;99.90;;;;;;5004974;28;20477;-76
2023/04/03 04:01:22;;;;;;;8.27;1.63;;;1.30;99.90;;;;;;4996443;28;20209;-75
2023/04/03 04:03:48;;;;;;;3.73;1.20;;;1.30;99.90;;;;;;5002832;28;20185;-77
2023/04/03 04:06:14;;;;;;;4.77;1.40;;;1.30;99.90;;;;;;4999764;28;20288;-76
2023/04/03 04:08:40;;;;;;;7.77;1.57;;;1.20;99.90;;;;;;4998962;28;20262;-76
2023/04/03 04:11:06;;;;;;;6.03;1.67;;;1.30;99.90;;;;;;4999269;28;20219;-76
2023/04/03 04:13:31;;;;;;;6.23;1.60;;;1.20;99.90;;;;;;5002016;28;20189;-77
2023/04/03 04:15:57;;;;;;;5.17;1.60;;;1.20;99.90;;;;;;4998004;28;20209;-76
2023/04/03 04:18:23;;;;;;;4.93;1.47;;;1.20;99.90;;;;;;4997777;28;20212;-76
2023/04/03 04:20:49;;;;;;;6.10;1.73;;;1.20;99.90;;;;;;5001104;28;20213;-76
2023/04/03 04:23:16;;;;;;;8.97;1.63;;;1.20;99.90;;;;;;4994494;28;20232;-76
2023/04/03 04:25:48;;;;;;;4.87;1.70;;;1.20;99.90;;;;;;4996614;28;20220;-76
2023/04/03 04:28:14;;;;;;;3.80;1.20;;;1.10;99.90;;;;;;4994691;28;20201;-76
2023/04/03 04:30:40;;;;;;;4.90;1.33;;;1.10;99.90;;;;;;5004888;28;20202;-76
2023/04/03 04:33:06;;;;;;;6.37;1.47;;;1.10;99.90;;;;;;4996128;28;20263;-74
2023/04/03 04:35:32;;;;;;;5.60;1.90;;;1.10;99.90;;;;;;4996746;28;20228;-76
2023/04/03 04:37:58;;;;;;;4.93;1.60;;;1.10;99.90;;;;;;4996094;28;20209;-76
2023/04/03 04:40:24;;;;;;;7.60;1.57;;;1.00;99.90;;;;;;4995046;28;20710;-76
2023/04/03 04:42:50;;;;;;;8.47;1.57;;;1.10;99.90;;;;;;4998367;28;20244;-76
2023/04/03 04:45:16;;;;;;;3.87;1.50;;;1.10;99.90;;;;;;4998387;28;20599;-76
2023/04/03 04:47:41;;;;;;;5.00;1.53;;;1.20;99.90;;;;;;4994502;28;20292;-76
2023/04/03 04:50:08;;;;;;;6.23;1.80;;;1.20;99.90;;;;;;4999480;28;20209;-76
2023/04/03 04:52:33;;;;;;;4.80;1.37;;;1.20;99.90;;;;;;5001955;28;20570;-76
2023/04/03 04:54:59;;;;;;;4.43;1.40;;;1.20;99.90;;;;;;5000428;28;20204;-76
2023/04/03 04:57:25;;;;;;;4.83;1.17;;;1.40;99.90;;;;;;4997365;28;20272;-73
2023/04/03 04:59:51;;;;;;;4.87;1.50;;;1.40;99.90;;;;;;5000323;28;20275;-76
2023/04/03 05:02:17;;;;;;;10.70;1.70;;;1.40;99.90;;;;;;4996780;28;20205;-76
2023/04/03 05:04:43;;;;;;;5.90;1.60;;;1.80;99.90;;;;;;5001404;28;20567;-76
2023/04/03 05:07:08;;;;;;;4.93;1.47;;;2.50;99.90;;;;;;4996489;28;20186;-76
2023/04/03 05:09:34;;;;;;;3.93;1.60;;;3.00;99.90;;;;;;4996613;28;20269;-75
2023/04/03 05:12:00;;;;;;;5.47;1.67;;;2.80;99.90;;;;;;4996798;28;20219;-76
2023/04/03 05:14:25;;;;;;;6.17;1.20;;;2.60;99.90;;;;;;5002706;28;20209;-75
2023/04/03 05:16:54;;;;;;;4.13;1.50;;;2.50;99.90;;;;;;5000448;28;20304;-75
2023/04/03 05:19:20;;;;;;;7.30;1.50;;;2.20;99.90;;;;;;5003386;28;20616;-77
2023/04/03 05:21:47;;;;;;;3.93;1.40;;;2.20;99.90;;;;;;4994925;28;20188;-77
2023/04/03 05:24:13;;;;;;;3.87;1.47;;;2.20;99.90;;;;;;4994386;28;20285;-77
2023/04/03 05:26:39;;;;;;;5.33;1.40;;;2.20;99.90;;;;;;4993468;28;20217;-74
2023/04/03 05:29:05;;;;;;;6.63;2.27;;;2.60;99.90;;;;;;4993061;28;20216;-77
2023/04/03 05:31:30;;;;;;;6.43;1.40;;;3.80;99.90;;;;;;4996689;28;20182;-77
2023/04/03 05:33:56;;;;;;;7.00;1.40;;;4.70;99.90;;;;;;4996833;28;20181;-77
2023/04/03 05:36:22;;;;;;;7.10;1.30;;;5.90;99.90;;;;;;4992433;28;20218;-77
2023/04/03 05:38:48;;;;;;;4.80;1.83;;;6.70;99.90;;;;;;4999415;28;20298;-75
2023/04/03 05:41:15;;;;;;;4.70;1.40;;;7.10;99.90;;;;;;5016547;23;20221;-80
2023/04/03 05:43:41;;;;;;;3.33;1.03;;;7.30;99.90;;;;;;4989018;28;20210;-80
2023/04/03 05:46:15;;;;;;;4.77;1.67;;;8.00;99.90;;;;;;4990342;28;20173;-80
2023/04/03 05:48:41;;;;;;;3.83;1.37;;;8.40;99.90;;;;;;4997394;28;20221;-80
2023/04/03 05:51:12;;;;;;;3.10;1.40;;;8.70;99.90;;;;;;4991654;28;20221;-79
2023/04/03 05:53:38;;;;;;;5.03;1.35;;;9.30;99.90;;;;;;4987401;28;20268;-80
2023/04/03 05:56:04;;;;;;;6.72;1.50;;;9.70;99.90;;;;;;4983821;28;20684;-80
2023/04/03 05:58:29;;;;;;;4.85;1.52;;;9.80;99.90;;;;;;4993276;28;20559;-79
2023/04/03 06:00:55;;;;;;;3.17;1.10;;;9.90;99.90;;;;;;4989939;28;20201;-80
2023/04/03 06:03:22;;;;;;;6.47;2.25;;;10.60;99.90;;;;;;4986735;28;20292;-81
2023/04/03 06:05:48;;;;;;;7.13;1.90;;;9.90;99.90;;;;;;4987409;28;20287;-81
2023/04/03 06:08:14;;;;;;;5.70;1.83;;;10.20;99.90;;;;;;4993412;28;20740;-81
2023/04/03 06:10:40;;;;;;;4.75;1.50;;;10.60;99.90;;;;;;4982355;28;20597;-80
2023/04/03 06:13:06;;;;;;;3.67;1.35;;;10.90;99.90;;;;;;4986981;28;20178;-78
2023/04/03 06:15:33;;;;;;;6.60;1.70;;;11.10;99.90;;;;;;4987231;28;20709;-80
2023/04/03 06:17:59;;;;;;;6.18;1.85;;;11.70;99.90;;;;;;4986055;28;20207;-78
2023/04/03 06:20:25;;;;;;;3.28;1.75;;;11.30;99.90;;;;;;4986644;28;20208;-80
2023/04/03 06:22:51;;;;;;;7.57;1.88;;;11.30;99.90;;;;;;4984594;28;20212;-78
2023/04/03 06:25:18;;;;;;;7.47;2.45;;;10.60;99.90;;;;;;4990248;28;20600;-79
2023/04/03 06:27:44;;;;;;;7.05;2.15;;;10.30;99.90;;;;;;4985715;28;20547;-77
2023/04/03 06:30:11;;;;;;;5.38;1.58;;;10.70;99.90;;;;;;4986909;28;20248;-79
2023/04/03 06:32:37;;;;;;;4.55;1.70;;;11.60;99.90;;;;;;4984891;28;20221;-79
2023/04/03 06:35:04;;;;;;;6.25;1.98;;;10.30;99.90;;;;;;4986344;28;20708;-79
2023/04/03 06:37:30;;;;;;;5.93;1.70;;;10.60;99.90;;;;;;4992672;28;20228;-78
2023/04/03 06:39:56;;;;;;;7.18;2.13;;;11.30;99.90;;;;;;5002373;28;20590;-79
2023/04/03 06:42:22;;;;;;;5.68;1.75;;;10.80;99.90;;;;;;4991608;28;20214;-80
2023/04/03 06:44:48;;;;;;;3.95;1.80;;;10.80;99.90;;;;;;4993433;28;20217;-79
2023/04/03 06:47:15;;;;;;;5.22;1.65;;;11.40;99.90;;;;;;4991231;28;20209;-80
2023/04/03 06:49:41;;;;;;;4.72;1.73;;;11.20;99.90;;;;;;4988512;28;20592;-81
2023/04/03 06:52:07;;;;;;;7.57;1.67;;;10.80;99.90;;;;;;4995521;28;20219;-80
2023/04/03 06:54:33;;;;;;;4.78;1.45;;;11.30;99.90;;;;;;4993387;28;20677;-78
2023/04/03 06:56:59;;;;;;;5.53;1.73;;;11.70;99.90;;;;;;4994050;28;20791;-79
2023/04/03 06:59:26;;;;;;;3.75;1.63;;;11.70;99.90;;;;;;4998786;28;20198;-80
2023/04/03 07:01:51;;;;;;;7.80;3.63;;;11.60;99.90;;;;;;4998810;28;20355;-79
2023/04/03 07:04:19;;;;;;;4.85;1.55;;;12.00;99.90;;;;;;4991556;28;20240;-80
2023/04/03 07:06:44;;;;;;;5.78;1.50;;;10.80;99.90;;;;;;5000188;28;20181;-79
2023/04/03 07:09:10;;;;;;;4.03;1.52;;;10.70;99.90;;;;;;4989246;28;20637;-78
2023/04/03 07:11:36;;;;;;;4.55;1.35;;;10.70;99.90;;;;;;4982208;28;20223;-78
2023/04/03 07:14:02;;;;;;;3.30;1.30;;;10.60;99.90;;;;;;5002260;28;20205;-80
2023/04/03 07:16:30;;;;;;;3.00;1.00;;;12.00;99.90;;;;;;4985889;28;20976;-80
2023/04/03 07:18:57;;;;;;;5.18;1.67;;;10.50;99.90;;;;;;4992743;28;20179;-79
2023/04/03 07:21:23;;;;;;;3.97;1.38;;;11.40;99.90;;;;;;4989770;28;20263;-80
2023/04/03 07:23:49;;;;;;;3.28;1.27;;;12.10;99.90;;;;;;4994049;28;20217;-80
2023/04/03 07:26:15;;;;;;;5.13;1.42;;;11.70;99.90;;;;;;4988888;28;20206;-80
2023/04/03 07:28:41;;;;;;;3.97;1.20;;;11.10;99.90;;;;;;4986626;28;20286;-78
2023/04/03 07:31:11;;;;;;;6.82;1.13;;;11.70;99.90;;;;;;5000674;28;20198;-78
2023/04/03 07:33:38;;;;;;;3.17;0.80;;;10.40;99.90;;;;;;4982126;28;20589;-77
2023/04/03 07:36:06;;;;;;;2.33;1.10;;;7.60;99.90;;;;;;4984626;28;20217;-77
2023/04/03 07:38:32;;;;;;;3.53;1.37;;;7.20;99.90;;;;;;4987252;28;20206;-80
2023/04/03 07:40:58;;;;;;;2.77;0.90;;;8.80;99.90;;;;;;4987201;28;20224;-77
2023/04/03 07:43:26;;;;;;;1.63;0.93;;;8.40;99.90;;;;;;4992020;28;20264;-79
2023/04/03 07:45:53;;;;;;;2.40;0.90;;;8.40;99.90;;;;;;4986074;28;20708;-78
2023/04/03 07:48:22;;;;;;;3.53;0.90;;;10.80;99.90;;;;;;4987990;28;20209;-79
2023/04/03 07:50:47;;;;;;;2.20;0.90;;;9.80;99.90;;;;;;4988799;28;20237;-80
2023/04/03 07:53:13;;;;;;;11.90;5.80;;;9.50;99.90;;;;;;4992426;28;20206;-81
2023/04/03 07:55:42;;;;;;;4.67;1.20;;;9.90;99.90;;;;;;4983566;28;20226;-80
2023/04/03 07:58:14;;;;;;;6.17;1.10;;;11.40;99.90;;;;;;4990673;28;20550;-80
2023/04/03 08:00:40;;;;;;;2.03;1.00;;;10.30;99.90;;;;;;5002383;28;20660;-79
2023/04/03 08:03:07;;;;;;;3.63;1.23;;;9.10;99.90;;;;;;4991622;28;20297;-78
2023/04/03 08:05:37;;;;;;;3.50;1.10;;;8.20;99.90;;;;;;4988794;28;20217;-80
2023/04/03 08:08:04;;;;;;;3.67;1.33;;;7.70;99.90;;;;;;4996698;28;20213;-80
2023/04/03 08:10:30;;;;;;;1.60;1.10;;;7.10;99.90;;;;;;4983814;28;20206;-80
2023/04/03 08:12:56;;;;;;;3.70;1.40;;;6.60;99.90;;;;;;4986927;28;20179;-78
2023/04/03 08:15:22;;;;;;;3.17;1.23;;;6.60;99.90;;;;;;4990282;28;20224;-80
2023/04/03 08:17:48;;;;;;;3.10;1.00;;;6.90;99.90;;;;;;4983836;28;20692;-80
2023/04/03 08:20:13;;;;;;;4.57;1.10;;;7.30;99.90;;;;;;4987416;28;20267;-80
2023/04/03 08:22:39;;;;;;;3.80;1.40;;;8.00;99.90;;;;;;4985167;28;20271;-80
2023/04/03 08:25:05;;;;;;;3.53;1.30;;;8.20;99.90;;;;;;4991843;28;20657;-79
2023/04/03 08:27:31;;;;;;;3.50;1.07;;;8.50;99.90;;;;;;4985796;28;20205;-80
2023/04/03 08:29:57;;;;;;;4.57;1.57;;;7.90;99.90;;;;;;4986592;28;20587;-80
2023/04/03 08:32:23;;;;;;;4.20;1.37;;;7.90;99.90;;;;;;4990189;28;20222;-80
2023/04/03 08:34:48;;;;;;;2.87;1.40;;;7.80;99.90;;;;;;4989456;28;20209;-79
2023/04/03 08:37:16;;;;;;;3.57;0.97;;;7.30;99.90;;;;;;4993441;28;20217;-79
2023/04/03 08:39:43;;;;;;;2.87;1.13;;;6.80;99.90;;;;;;4986309;28;20206;-80
2023/04/03 08:42:37;;;;;;;3.40;1.13;;;6.30;99.90;;;;;;4992118;28;20226;-79
2023/04/03 08:45:14;;;;;;;3.23;0.97;;;6.10;99.90;;;;;;4990376;28;20302;-77
2023/04/03 08:48:05;;;;;;;2.80;1.10;;;5.80;99.90;;;;;;4989284;28;20221;-78
2023/04/03 08:50:37;;;;;;;4.00;1.17;;;5.90;99.90;;;;;;4993336;28;20236;-79
2023/04/03 08:53:06;;;;;;;5.30;1.43;;;5.80;99.90;;;;;;4988098;28;20268;-80
2023/04/03 08:55:40;;;;;;;3.43;1.20;;;5.90;99.90;;;;;;4987925;28;20213;-79
2023/04/03 08:58:25;;;;;;;2.37;1.10;;;5.90;99.90;;;;;;4986244;28;20257;-79
2023/04/03 09:01:28;;;;;;;2.67;1.00;;;5.90;99.90;;;;;;4986404;28;20217;-80
2023/04/03 09:03:54;;;;;;;3.77;1.40;;;6.10;99.90;;;;;;4970138;28;20649;-79
2023/04/03 09:06:23;;;;;;;1.10;0.80;;;6.10;99.90;;;;;;4985507;28;20233;-80
2023/04/03 09:08:55;;;;;;;3.87;1.00;;;6.40;99.90;;;;;;4990993;28;20210;-77
2023/04/03 09:11:46;;;;;;;4.50;1.47;;;6.20;99.90;;;;;;4987753;28;20238;-78
2023/04/03 09:14:37;;;;;;;3.23;1.40;;;6.10;99.90;;;;;;4997126;28;20277;-79
2023/04/03 09:17:12;;;;;;;4.00;1.23;;;6.00;99.90;;;;;;4994206;28;20241;-80
2023/04/03 09:20:00;;;;;;;2.43;1.10;;;6.50;99.90;;;;;;4983752;28;20252;-78
2023/04/03 09:22:28;;;;;;;3.77;0.97;;;6.80;99.90;;;;;;4985643;28;20256;-78
2023/04/03 09:25:10;;;;;;;2.00;0.90;;;6.30;99.90;;;;;;4983755;28;20174;-79
2023/04/03 09:27:36;;;;;;;1.60;0.90;;;6.20;99.90;;;;;;4986412;28;20213;-78
2023/04/03 09:30:03;;;;;;;2.43;0.80;;;6.20;99.90;;;;;;4983093;28;20276;-76
2023/04/03 09:32:32;;;;;;;1.47;0.70;;;6.10;99.90;;;;;;4988458;28;20213;-78
2023/04/03 09:35:23;;;;;;;3.03;1.03;;;6.20;99.90;;;;;;4987252;28;20221;-78
2023/04/03 09:37:52;;;;;;;1.80;0.97;;;5.90;99.90;;;;;;4989697;28;20305;-80
2023/04/03 09:40:30;;;;;;;4.13;1.00;;;6.00;99.90;;;;;;4993554;28;20181;-79
2023/04/03 09:42:59;;;;;;;2.60;0.70;;;5.90;99.90;;;;;;4989852;28;20189;-79
2023/04/03 09:45:32;;;;;;;2.07;0.80;;;5.80;99.90;;;;;;4988226;28;20212;-79
2023/04/03 09:48:15;;;;;;;3.33;1.10;;;5.40;99.90;;;;;;4985554;28;20230;-79
2023/04/03 09:50:50;;;;;;;3.57;0.90;;;5.60;99.90;;;;;;4987866;28;20205;-77
2023/04/03 09:53:36;;;;;;;3.60;1.40;;;5.90;99.90;;;;;;4995094;28;20220;-79
2023/04/03 09:56:22;;;;;;;2.33;1.50;;;6.50;99.90;;;;;;4991174;28;20222;-79
2023/04/03 09:58:50;;;;;;;2.90;1.30;;;7.20;99.90;;;;;;4984518;28;20214;-80
2023/04/03 10:01:32;;;;;;;2.03;1.10;;;7.00;99.90;;;;;;4979386;28;20249;-79
2023/04/03 10:04:10;;;;;;;3.27;1.13;;;6.60;99.90;;;;;;4984463;28;20199;-80
2023/04/03 10:06:47;;;;;;;5.33;1.50;;;6.80;99.90;;;;;;4999136;28;20240;-79
2023/04/03 10:09:27;;;;;;;1.97;1.00;;;6.40;99.90;;;;;;4986783;28;20202;-79
2023/04/03 10:12:05;;;;;;;6.60;1.40;;;6.20;99.90;;;;;;4987569;28;20238;-78
2023/04/03 10:14:38;;;;;;;2.17;1.10;;;6.10;99.90;;;;;;4987206;28;20259;-77
2023/04/03 10:17:46;;;;;;;2.83;1.00;;;5.90;99.90;;;;;;4985461;28;20230;-78
2023/04/03 10:20:33;;;;;;;2.93;1.53;;;6.40;99.90;;;;;;4986112;28;20277;-77
2023/04/03 10:23:17;;;;;;;3.63;1.30;;;6.10;99.90;;;;;;4984595;28;20275;-76
2023/04/03 10:25:55;;;;;;;2.10;1.40;;;6.20;99.90;;;;;;4986534;28;20688;-79
2023/04/03 10:28:27;;;;;;;5.33;1.50;;;6.00;99.90;;;;;;4990095;28;20562;-78
2023/04/03 10:31:02;;;;;;;1.50;0.83;;;5.90;99.90;;;;;;4991834;28;20213;-77
2023/04/03 10:33:40;;;;;;;3.42;1.10;;;6.10;99.90;;;;;;4986206;28;20436;-80
2023/04/03 10:36:17;;;;;;;2.57;1.00;;;6.50;99.90;;;;;;4986259;28;20227;-79
2023/04/03 10:39:14;;;;;;;3.10;1.07;;;6.50;99.90;;;;;;4983854;28;20580;-79
2023/04/03 10:41:42;;;;;;;2.93;1.17;;;6.70;99.90;;;;;;4998937;28;20214;-79
2023/04/03 10:44:36;;;;;;;1.80;0.70;;;6.80;99.90;;;;;;4985305;28;20241;-79
2023/04/03 10:47:24;;;;;;;0.73;0.67;;;6.60;99.90;;;;;;4982193;28;20210;-81
2023/04/03 10:50:10;;;;;;;1.70;0.80;;;6.50;99.90;;;;;;4984760;28;20213;-79
2023/04/03 10:52:41;;;;;;;3.10;1.10;;;6.30;99.90;;;;;;4987607;28;20288;-82
2023/04/03 10:55:21;;;;;;;0.90;0.77;;;6.30;99.90;;;;;;4985025;28;20204;-79
2023/04/03 10:57:49;;;;;;;2.60;0.80;;;6.40;99.90;;;;;;4990185;28;20202;-78
2023/04/03 11:00:19;;;;;;;1.93;0.80;;;6.10;99.90;;;;;;4987305;28;20217;-81
2023/04/03 11:03:02;;;;;;;1.27;0.80;;;6.00;99.90;;;;;;4986657;28;20206;-79
2023/04/03 11:05:37;;;;;;;2.27;1.10;;;6.00;99.90;;;;;;4989145;28;20289;-80
2023/04/03 11:08:10;;;;;;;3.70;1.17;;;6.50;99.90;;;;;;4991758;28;20586;-81
2023/04/03 11:10:44;;;;;;;1.20;0.80;;;6.80;99.90;;;;;;4988377;28;25296;-80
2023/04/03 11:13:30;;;;;;;2.03;1.00;;;7.00;99.90;;;;;;4986458;28;20185;-79
2023/04/03 11:15:58;;;;;;;1.53;1.20;;;6.20;99.90;;;;;;4983337;28;20272;-80
2023/04/03 11:18:36;;;;;;;2.83;0.87;;;6.00;99.90;;;;;;4983697;28;20713;-80
2023/04/03 11:21:12;;;;;;;3.80;1.07;;;6.20;99.90;;;;;;4986940;28;20210;-79
2023/04/03 11:23:40;;;;;;;2.67;1.20;;;6.40;99.90;;;;;;4989186;28;20212;-80
2023/04/03 11:26:13;;;;;;;2.73;0.80;;;6.60;99.90;;;;;;4982923;28;20210;-80
2023/04/03 11:28:39;;;;;;;1.37;0.60;;;6.60;99.90;;;;;;4987451;28;20233;-80
2023/04/03 11:31:11;;;;;;;3.00;1.10;;;6.50;99.90;;;;;;4983891;28;20199;-81
2023/04/03 11:33:56;;;;;;;2.73;1.20;;;6.80;99.90;;;;;;4989220;28;20201;-80
2023/04/03 11:36:32;;;;;;;2.37;1.13;;;6.80;99.90;;;;;;4989942;28;20739;-81
2023/04/03 11:39:07;;;;;;;2.53;1.33;;;6.80;99.90;;;;;;4983740;28;20220;-81
2023/04/03 11:41:33;;;;;;;2.53;0.90;;;6.90;99.90;;;;;;4993860;28;20221;-80
2023/04/03 11:43:59;;;;;;;4.97;1.70;;;6.90;99.90;;;;;;4983532;28;20214;-80
2023/04/03 11:46:52;;;;;;;1.53;1.00;;;6.80;99.90;;;;;;4985650;28;20205;-80
2023/04/03 11:49:56;;;;;;;3.57;1.80;;;6.90;99.90;;;;;;4984767;28;20190;-81
2023/04/03 11:52:40;;;;;;;10.03;4.43;;;7.10;99.90;;;;;;4990446;28;20220;-81
2023/04/03 11:55:21;;;;;;;3.13;1.50;;;7.10;99.90;;;;;;4992199;28;20181;-81
2023/04/03 11:58:02;;;;;;;2.70;1.40;;;7.00;99.90;;;;;;4986083;28;20216;-79
2023/04/03 12:00:46;;;;;;;5.03;1.70;;;6.90;99.90;;;;;;4981913;28;20220;-81
2023/04/03 12:03:27;;;;;;;2.63;1.40;;;7.00;99.90;;;;;;4986979;28;20589;-81
2023/04/03 12:06:04;;;;;;;4.43;1.20;;;6.90;99.90;;;;;;4985259;28;20217;-78
2023/04/03 12:08:33;;;;;;;4.27;0.90;;;6.90;99.90;;;;;;4988128;28;20239;-80
2023/04/03 12:11:10;;;;;;;3.53;1.20;;;6.80;99.90;;;;;;4987309;28;20285;-79
2023/04/03 12:13:38;;;;;;;6.60;1.10;;;6.80;99.90;;;;;;5000217;28;20217;-79
2023/04/03 12:16:06;;;;;;;3.03;0.90;;;6.90;99.90;;;;;;4990905;28;20201;-78
2023/04/03 12:18:58;;;;;;;5.67;1.60;;;6.50;99.90;;;;;;4991629;28;20201;-78
2023/04/03 12:21:36;;;;;;;2.03;0.80;;;6.70;99.90;;;;;;4991003;28;20206;-79
2023/04/03 12:24:07;;;;;;;1.90;0.93;;;6.90;99.90;;;;;;4987584;28;20202;-79
2023/04/03 12:26:59;;;;;;;1.97;0.93;;;6.80;99.90;;;;;;4990627;28;20203;-81
2023/04/03 12:29:30;;;;;;;1.30;0.90;;;7.00;99.90;;;;;;4992956;28;20202;-79
2023/04/03 12:31:56;;;;;;;2.73;1.00;;;6.50;99.90;;;;;;4996020;28;20218;-78
2023/04/03 12:34:53;;;;;;;2.90;1.20;;;6.60;99.90;;;;;;4985527;28;20200;-79
2023/04/03 12:37:24;;;;;;;2.33;1.10;;;6.30;99.90;;;;;;4997561;28;20199;-78
2023/04/03 12:40:22;;;;;;;3.03;0.90;;;6.30;99.90;;;;;;4989796;28;20205;-77
2023/04/03 12:43:04;;;;;;;3.60;1.27;;;6.60;99.90;;;;;;4989729;28;20441;-79
2023/04/03 12:46:12;;;;;;;3.57;1.57;;;6.90;99.90;;;;;;4988834;28;20214;-79
2023/04/03 12:48:58;;;;;;;1.77;0.70;;;7.00;99.90;;;;;;4977981;28;20213;-79
2023/04/03 12:51:37;;;;;;;2.20;1.07;;;7.00;99.90;;;;;;5004383;28;20240;-79
2023/04/03 12:54:32;;;;;;;1.53;0.90;;;6.80;99.90;;;;;;4991276;28;20243;-78
2023/04/03 12:57:20;;;;;;;2.00;0.83;;;6.90;99.90;;;;;;4986802;28;20226;-78
2023/04/03 12:59:46;;;;;;;2.03;0.83;;;6.60;99.90;;;;;;4994156;28;20213;-79
2023/04/03 13:02:28;;;;;;;1.23;0.70;;;6.80;99.90;;;;;;4990021;28;20217;-79
2023/04/03 13:04:58;;;;;;;3.83;1.53;;;7.00;99.90;;;;;;4995054;28;20217;-79
2023/04/03 13:07:33;;;;;;;1.57;0.97;;;7.10;99.90;;;;;;4989426;28;20262;-79
2023/04/03 13:10:04;;;;;;;2.47;1.10;;;7.00;99.90;;;;;;4988592;28;20228;-79
2023/04/03 13:12:29;;;;;;;2.33;1.20;;;7.00;99.90;;;;;;4992979;28;20202;-78